createdAt,value
2023-01-21T00:03:13.000Z,48.9
2023-01-21T00:06:41.000Z,46.3
2023-01-21T00:10:09.000Z,44.2
2023-01-21T00:13:38.000Z,43.4
2023-01-21T00:17:06.000Z,43.7
2023-01-21T00:19:55.000Z,47.6
2023-01-21T00:23:23.000Z,41.9
2023-01-21T00:26:51.000Z,39.6
2023-01-21T00:30:18.000Z,48.4
2023-01-21T00:33:46.000Z,39.5
2023-01-21T00:37:14.000Z,37.2
2023-01-21T00:40:42.000Z,45.3
2023-01-21T00:44:10.000Z,43.2
2023-01-21T00:47:38.000Z,42.8
2023-01-21T00:51:06.000Z,56.7
2023-01-21T00:54:34.000Z,48.8
2023-01-21T00:57:23.000Z,45
2023-01-21T01:00:52.000Z,41.3
2023-01-21T01:04:20.000Z,42.4
2023-01-21T01:07:47.000Z,46.3
2023-01-21T01:11:15.000Z,45.7
2023-01-21T01:14:43.000Z,55.2
2023-01-21T01:18:11.000Z,45.4
2023-01-21T01:21:39.000Z,49.1
2023-01-21T01:25:07.000Z,47.3
2023-01-21T01:28:38.000Z,48.1
2023-01-21T01:32:06.000Z,45.6
2023-01-21T01:34:55.000Z,48.5
2023-01-21T01:38:23.000Z,48.1
2023-01-21T01:41:51.000Z,47.4
2023-01-21T01:45:19.000Z,47.3
2023-01-21T01:48:46.000Z,45.3
2023-01-21T01:52:15.000Z,49.7
2023-01-21T01:55:43.000Z,47.7
2023-01-21T01:59:11.000Z,54
2023-01-21T02:02:39.000Z,49.1
2023-01-21T02:06:07.000Z,52.2
2023-01-21T02:09:35.000Z,52.8
2023-01-21T02:12:24.000Z,56.5
2023-01-21T02:15:52.000Z,60
2023-01-21T02:19:20.000Z,55.9
2023-01-21T02:22:48.000Z,53.2
2023-01-21T02:26:15.000Z,50
2023-01-21T02:29:43.000Z,52.1
2023-01-21T02:33:11.000Z,52.9
2023-01-21T02:36:39.000Z,49
2023-01-21T02:40:07.000Z,53.1
2023-01-21T02:43:36.000Z,53.3
2023-01-21T02:47:04.000Z,46.6
2023-01-21T02:49:53.000Z,50.4
2023-01-21T02:53:21.000Z,48.1
2023-01-21T02:56:49.000Z,49.2
2023-01-21T03:00:17.000Z,56.1
2023-01-21T03:03:45.000Z,51.8
2023-01-21T03:07:13.000Z,47.2
2023-01-21T03:10:41.000Z,50.4
2023-01-21T03:14:08.000Z,49.7
2023-01-21T03:17:36.000Z,47.4
2023-01-21T03:21:04.000Z,45.3
2023-01-21T03:24:32.000Z,44.5
2023-01-21T03:27:21.000Z,44.7
2023-01-21T03:30:49.000Z,42
2023-01-21T03:34:17.000Z,45.1
2023-01-21T03:37:45.000Z,41.1
2023-01-21T03:41:13.000Z,42.5
2023-01-21T03:44:41.000Z,38.6
2023-01-21T03:48:09.000Z,40.7
2023-01-21T03:51:37.000Z,38.7
2023-01-21T03:55:05.000Z,37.6
2023-01-21T03:58:33.000Z,37.5
2023-01-21T04:02:01.000Z,35.6
2023-01-21T04:04:50.000Z,43.1
2023-01-21T04:08:18.000Z,34
2023-01-21T04:11:46.000Z,34.4
2023-01-21T04:15:13.000Z,35.6
2023-01-21T04:18:41.000Z,36.4
2023-01-21T04:22:09.000Z,39.3
2023-01-21T04:25:37.000Z,35.6
2023-01-21T04:29:05.000Z,34.7
2023-01-21T04:32:33.000Z,35.9
2023-01-21T04:36:01.000Z,33.2
2023-01-21T04:39:28.000Z,35.6
2023-01-21T04:42:18.000Z,35.6
2023-01-21T04:45:46.000Z,34.8
2023-01-21T04:49:14.000Z,36.7
2023-01-21T04:52:42.000Z,44
2023-01-21T04:56:09.000Z,36.8
2023-01-21T04:59:37.000Z,34.9
2023-01-21T05:03:05.000Z,34.9
2023-01-21T05:06:33.000Z,37.5
2023-01-21T05:10:01.000Z,34.3
2023-01-21T05:13:29.000Z,36.9
2023-01-21T05:16:57.000Z,37.7
2023-01-21T05:19:46.000Z,34.7
2023-01-21T05:23:14.000Z,41.9
2023-01-21T05:26:42.000Z,37.5
2023-01-21T05:30:10.000Z,38.8
2023-01-21T05:33:38.000Z,38.6
2023-01-21T05:37:06.000Z,38.3
2023-01-21T05:40:34.000Z,34.8
2023-01-21T05:44:02.000Z,42.5
2023-01-21T05:47:30.000Z,40
2023-01-21T05:50:58.000Z,42.4
2023-01-21T05:54:26.000Z,43.1
2023-01-21T05:59:21.000Z,38.8
2023-01-21T06:02:49.000Z,42.6
2023-01-21T06:06:19.000Z,41.1
2023-01-21T06:09:47.000Z,41.2
2023-01-21T06:13:15.000Z,44.2
2023-01-21T06:16:43.000Z,43.5
2023-01-21T06:20:11.000Z,36.5
2023-01-21T06:23:40.000Z,45.6
2023-01-21T06:27:08.000Z,41.8
2023-01-21T06:30:36.000Z,37.3
2023-01-21T06:34:04.000Z,42.1
2023-01-21T06:36:47.000Z,37.5
2023-01-21T06:40:15.000Z,38.6
2023-01-21T06:43:43.000Z,42.4
2023-01-21T06:47:11.000Z,40.3
2023-01-21T06:50:38.000Z,46.8
2023-01-21T06:54:06.000Z,44.9
2023-01-21T06:57:34.000Z,38
2023-01-21T07:01:02.000Z,42.8
2023-01-21T07:04:30.000Z,46.2
2023-01-21T07:07:58.000Z,37
2023-01-21T07:11:26.000Z,47.7
2023-01-21T07:14:15.000Z,39
2023-01-21T07:17:43.000Z,43.3
2023-01-21T07:21:11.000Z,40.9
2023-01-21T07:24:39.000Z,43.6
2023-01-21T07:28:07.000Z,37.9
2023-01-21T07:31:35.000Z,45.6
2023-01-21T07:35:03.000Z,44.7
2023-01-21T07:38:30.000Z,43.6
2023-01-21T07:41:58.000Z,50.8
2023-01-21T07:45:26.000Z,47.9
2023-01-21T07:48:54.000Z,49.7
2023-01-21T07:51:43.000Z,39.6
2023-01-21T07:55:11.000Z,40.6
2023-01-21T07:58:40.000Z,39.3
2023-01-21T08:02:08.000Z,40.6
2023-01-21T08:05:36.000Z,44.6
2023-01-21T08:09:04.000Z,44.7
2023-01-21T08:12:31.000Z,45.6
2023-01-21T08:15:59.000Z,42.1
2023-01-21T08:19:27.000Z,47.5
2023-01-21T08:22:55.000Z,43.7
2023-01-21T08:26:23.000Z,42.2
2023-01-21T08:29:12.000Z,41.7
2023-01-21T08:32:40.000Z,41.6
2023-01-21T08:36:08.000Z,43.1
2023-01-21T08:39:36.000Z,43
2023-01-21T08:43:04.000Z,40.9
2023-01-21T08:46:32.000Z,38.6
2023-01-21T08:50:00.000Z,42
2023-01-21T08:53:28.000Z,40.2
2023-01-21T08:56:55.000Z,41.2
2023-01-21T09:00:23.000Z,32.6
2023-01-21T09:03:51.000Z,34.5
2023-01-21T09:06:41.000Z,37.3
2023-01-21T09:10:08.000Z,38.4
2023-01-21T09:13:36.000Z,32.8
2023-01-21T09:17:04.000Z,37.6
2023-01-21T09:20:32.000Z,31.3
2023-01-21T09:24:00.000Z,41.6
2023-01-21T09:27:28.000Z,35.9
2023-01-21T09:30:56.000Z,36.9
2023-01-21T09:34:24.000Z,38.5
2023-01-21T09:37:56.000Z,22.6
2023-01-21T09:41:24.000Z,36.5
2023-01-21T09:44:13.000Z,31.7
2023-01-21T09:47:41.000Z,30.4
2023-01-21T09:51:09.000Z,33
2023-01-21T09:54:37.000Z,31.2
2023-01-21T09:58:05.000Z,37.8
2023-01-21T10:01:33.000Z,33.7
2023-01-21T10:05:01.000Z,36.9
2023-01-21T10:08:28.000Z,32.8
2023-01-21T10:11:56.000Z,30.3
2023-01-21T10:15:24.000Z,31.4
2023-01-21T10:18:52.000Z,36.3
2023-01-21T10:21:41.000Z,40.6
2023-01-21T10:25:09.000Z,30.4
2023-01-21T10:28:38.000Z,29.1
2023-01-21T10:32:06.000Z,39.2
2023-01-21T10:35:33.000Z,33.6
2023-01-21T10:39:01.000Z,31.1
2023-01-21T10:42:29.000Z,33.3
2023-01-21T10:45:57.000Z,26.9
2023-01-21T10:49:25.000Z,39.3
2023-01-21T10:52:53.000Z,30.9
2023-01-21T10:56:21.000Z,26.2
2023-01-21T10:59:10.000Z,15.2
2023-01-21T11:02:38.000Z,19.9
2023-01-21T11:06:06.000Z,17.5
2023-01-21T11:09:34.000Z,21.8
2023-01-21T11:13:02.000Z,16.7
2023-01-21T11:16:30.000Z,18.2
2023-01-21T11:19:58.000Z,14.5
2023-01-21T11:23:26.000Z,21.6
2023-01-21T11:26:54.000Z,15.7
2023-01-21T11:30:21.000Z,18.9
2023-01-21T11:34:09.000Z,22.8
2023-01-21T11:36:59.000Z,22.7
2023-01-21T11:40:27.000Z,19.2
2023-01-21T11:43:55.000Z,22.5
2023-01-21T11:47:22.000Z,19.4
2023-01-21T11:50:50.000Z,21.6
2023-01-21T11:54:18.000Z,18.5
2023-01-21T11:57:46.000Z,16.4
2023-01-21T12:01:14.000Z,17.7
2023-01-21T12:04:42.000Z,19.7
2023-01-21T12:08:10.000Z,20.3
2023-01-21T12:11:38.000Z,17.6
2023-01-21T12:14:27.000Z,20.6
2023-01-21T12:17:55.000Z,16.6
2023-01-21T12:21:23.000Z,18.2
2023-01-21T12:24:51.000Z,17.1
2023-01-21T12:28:19.000Z,17.9
2023-01-21T12:31:47.000Z,18.1
2023-01-21T12:35:15.000Z,17.1
2023-01-21T12:38:43.000Z,17.6
2023-01-21T12:42:11.000Z,16
2023-01-21T12:45:39.000Z,15.4
2023-01-21T12:49:07.000Z,16.2
2023-01-21T12:51:56.000Z,14
2023-01-21T12:55:24.000Z,16.5
2023-01-21T12:58:52.000Z,17.8
2023-01-21T13:02:20.000Z,16.3
2023-01-21T13:05:48.000Z,20
2023-01-21T13:09:16.000Z,15.8
2023-01-21T13:12:43.000Z,17.3
2023-01-21T13:16:11.000Z,17.7
2023-01-21T13:19:39.000Z,18.6
2023-01-21T13:23:07.000Z,14.9
2023-01-21T13:26:35.000Z,17.9
2023-01-21T13:29:25.000Z,15.8
2023-01-21T13:32:53.000Z,15
2023-01-21T13:36:20.000Z,17.8
2023-01-21T13:39:48.000Z,15.1
2023-01-21T13:43:16.000Z,13
2023-01-21T13:46:44.000Z,14.6
2023-01-21T13:50:12.000Z,14.7
2023-01-21T13:53:40.000Z,13.2
2023-01-21T13:57:08.000Z,17.2
2023-01-21T14:00:36.000Z,15.1
2023-01-21T14:04:04.000Z,14.9
2023-01-21T14:06:53.000Z,16.3
2023-01-21T14:10:21.000Z,17.4
2023-01-21T14:13:49.000Z,16.9
2023-01-21T14:17:17.000Z,14.6
2023-01-21T14:20:45.000Z,14.8
2023-01-21T14:24:13.000Z,15.2
2023-01-21T14:27:41.000Z,13.9
2023-01-21T14:31:09.000Z,15
2023-01-21T14:34:37.000Z,15.3
2023-01-21T14:38:05.000Z,17.7
2023-01-21T14:41:33.000Z,16.2
2023-01-21T14:44:22.000Z,17.4
2023-01-21T14:47:50.000Z,15.1
2023-01-21T14:51:18.000Z,17
2023-01-21T14:54:46.000Z,17.1
2023-01-21T14:58:14.000Z,17
2023-01-21T15:01:42.000Z,17.3
2023-01-21T15:05:10.000Z,15.5
2023-01-21T15:08:38.000Z,16.9
2023-01-21T15:12:06.000Z,17.6
2023-01-21T15:15:34.000Z,17.4
2023-01-21T15:19:02.000Z,17
2023-01-21T15:21:51.000Z,16.5
2023-01-21T15:25:19.000Z,17.8
2023-01-21T15:28:47.000Z,16.1
2023-01-21T15:32:15.000Z,15.8
2023-01-21T15:35:43.000Z,16.7
2023-01-21T15:39:11.000Z,16.9
2023-01-21T15:42:39.000Z,16.2
2023-01-21T15:46:07.000Z,18.7
2023-01-21T15:49:35.000Z,17.8
2023-01-21T15:53:03.000Z,17.1
2023-01-21T15:56:31.000Z,18
2023-01-21T15:59:20.000Z,19
2023-01-21T16:02:48.000Z,20
2023-01-21T16:06:16.000Z,16.8
2023-01-21T16:09:44.000Z,15.9
2023-01-21T16:13:12.000Z,15
2023-01-21T16:16:39.000Z,17.3
2023-01-21T16:20:07.000Z,17.5
2023-01-21T16:23:35.000Z,19.8
2023-01-21T16:27:03.000Z,17.6
2023-01-21T16:30:31.000Z,21.2
2023-01-21T16:33:59.000Z,22.2
2023-01-21T16:36:48.000Z,18.9
2023-01-21T16:40:16.000Z,16.9
2023-01-21T16:43:44.000Z,17
2023-01-21T16:47:13.000Z,22.7
2023-01-21T16:50:41.000Z,18.2
2023-01-21T16:54:09.000Z,22.5
2023-01-21T16:57:37.000Z,23.8
2023-01-21T17:01:05.000Z,19.1
2023-01-21T17:04:33.000Z,18.2
2023-01-21T17:08:01.000Z,21.7
2023-01-21T17:11:29.000Z,24.5
2023-01-21T17:14:18.000Z,22.6
2023-01-21T17:17:46.000Z,23.6
2023-01-21T17:21:13.000Z,24.2
2023-01-21T17:24:41.000Z,24.2
2023-01-21T17:28:09.000Z,27.1
2023-01-21T17:31:40.000Z,25.1
2023-01-21T17:35:08.000Z,21.3
2023-01-21T17:38:37.000Z,16.2
2023-01-21T17:42:05.000Z,21.9
2023-01-21T17:45:33.000Z,25
2023-01-21T17:49:01.000Z,23.3
2023-01-21T17:51:50.000Z,25
2023-01-21T17:55:18.000Z,22.3
2023-01-21T17:58:46.000Z,25.3
2023-01-21T18:02:14.000Z,28.5
2023-01-21T18:05:42.000Z,27.5
2023-01-21T18:09:09.000Z,23.7
2023-01-21T18:12:37.000Z,28.6
2023-01-21T18:16:05.000Z,28.4
2023-01-21T18:19:33.000Z,27
2023-01-21T18:23:01.000Z,25.2
2023-01-21T18:26:29.000Z,25.1
2023-01-21T18:29:19.000Z,27.9
2023-01-21T18:32:47.000Z,26.8
2023-01-21T18:36:15.000Z,26.5
2023-01-21T18:39:43.000Z,24.1
2023-01-21T18:43:11.000Z,24.2
2023-01-21T18:46:38.000Z,22.8
2023-01-21T18:50:06.000Z,22.2
2023-01-21T18:53:34.000Z,21.6
2023-01-21T18:57:02.000Z,23.4
2023-01-21T19:00:30.000Z,25.8
2023-01-21T19:03:58.000Z,24.5
2023-01-21T19:06:51.000Z,27.1
2023-01-21T19:10:18.000Z,28.1
2023-01-21T19:13:46.000Z,26.1
2023-01-21T19:17:14.000Z,23.1
2023-01-21T19:20:42.000Z,15.5
2023-01-21T19:24:10.000Z,23.8
2023-01-21T19:27:38.000Z,22
2023-01-21T19:31:06.000Z,22.1
2023-01-21T19:34:34.000Z,21.5
2023-01-21T19:38:02.000Z,29
2023-01-21T19:41:30.000Z,25.5
2023-01-21T19:44:19.000Z,27.3
2023-01-21T19:47:47.000Z,25
2023-01-21T19:51:15.000Z,28.7
2023-01-21T19:54:43.000Z,27.3
2023-01-21T20:02:43.000Z,23.5
2023-01-21T20:06:11.000Z,25.1
2023-01-21T20:09:39.000Z,26.2
2023-01-21T20:13:07.000Z,27
2023-01-21T20:16:34.000Z,19.9
2023-01-21T20:20:02.000Z,27.4
2023-01-21T20:22:52.000Z,29.8
2023-01-21T20:26:20.000Z,29.2
2023-01-21T20:29:48.000Z,28.9
2023-01-21T20:33:34.000Z,29.5
2023-01-21T20:37:04.000Z,31.4
2023-01-21T20:40:32.000Z,30
2023-01-21T20:44:00.000Z,35.7
2023-01-21T20:47:28.000Z,33.5
2023-01-21T20:51:03.000Z,30.8
2023-01-21T20:54:31.000Z,29.3
2023-01-21T20:57:59.000Z,31.4
2023-01-21T21:00:48.000Z,32.5
2023-01-21T21:04:16.000Z,31.9
2023-01-21T21:07:44.000Z,30.8
2023-01-21T21:11:12.000Z,30.6
2023-01-21T21:14:40.000Z,34.4
2023-01-21T21:18:08.000Z,31.1
2023-01-21T21:21:35.000Z,31.6
2023-01-21T21:25:03.000Z,32.2
2023-01-21T21:28:31.000Z,33.8
2023-01-21T21:31:59.000Z,22.3
2023-01-21T21:35:27.000Z,29.6
2023-01-21T21:41:48.000Z,41.5
2023-01-21T21:45:16.000Z,32.7
2023-01-21T21:48:43.000Z,28.1
2023-01-21T21:52:11.000Z,31.1
2023-01-21T21:55:39.000Z,32.6
2023-01-21T21:59:07.000Z,30.8
2023-01-21T22:02:35.000Z,25.4
2023-01-21T22:06:03.000Z,32
2023-01-21T22:09:31.000Z,33.6
2023-01-21T22:12:59.000Z,30.8
2023-01-21T22:16:27.000Z,29.5
2023-01-21T22:19:16.000Z,30.9
2023-01-21T22:22:44.000Z,28.8
2023-01-21T22:26:12.000Z,26.8
2023-01-21T22:29:40.000Z,23.6
2023-01-21T22:33:08.000Z,23.9
2023-01-21T22:36:36.000Z,23
2023-01-21T22:40:04.000Z,21.5
2023-01-21T22:43:32.000Z,19.2
2023-01-21T22:47:00.000Z,18.9
2023-01-21T22:50:28.000Z,17.5
2023-01-21T22:53:56.000Z,18.1
2023-01-21T23:00:13.000Z,22.6
2023-01-21T23:03:41.000Z,19.4
2023-01-21T23:07:09.000Z,17.2
2023-01-21T23:10:37.000Z,17.1
2023-01-21T23:14:05.000Z,18.2
2023-01-21T23:17:33.000Z,16.1
2023-01-21T23:21:01.000Z,18
2023-01-21T23:24:29.000Z,16.7
2023-01-21T23:27:57.000Z,16.1
2023-01-21T23:31:25.000Z,15
2023-01-21T23:34:53.000Z,16.6
2023-01-21T23:37:42.000Z,15.2
2023-01-21T23:41:10.000Z,13.9
2023-01-21T23:44:38.000Z,13.3
2023-01-21T23:48:06.000Z,11.4
2023-01-21T23:51:33.000Z,11
2023-01-21T23:55:01.000Z,11.4
2023-01-21T23:58:29.000Z,10.6
